createdAt,value
2018-11-11T00:00:46.127Z,14.77
2018-11-11T00:03:19.233Z,16.87
2018-11-11T00:05:48.719Z,15.37
2018-11-11T00:08:21.766Z,17.30
2018-11-11T00:10:53.163Z,16.47
2018-11-11T00:13:21.703Z,18.57
2018-11-11T00:15:50.703Z,16.40
2018-11-11T00:18:19.429Z,17.60
2018-11-11T00:20:47.917Z,14.90
2018-11-11T00:23:16.468Z,16.87
2018-11-11T00:25:45.805Z,15.93
2018-11-11T00:28:14.558Z,15.83
2018-11-11T00:30:43.117Z,17.37
2018-11-11T00:33:11.715Z,17.77
2018-11-11T00:35:40.263Z,17.93
2018-11-11T00:38:08.741Z,16.00
2018-11-11T00:40:37.466Z,20.10
2018-11-11T00:43:06.516Z,18.63
2018-11-11T00:45:35.075Z,17.83
2018-11-11T00:48:05.363Z,19.77
2018-11-11T00:50:34.012Z,22.10
2018-11-11T00:53:02.556Z,21.93
2018-11-11T00:55:35.590Z,19.93
2018-11-11T00:58:05.039Z,19.63
2018-11-11T01:00:33.567Z,24.00
2018-11-11T01:03:02.706Z,22.97
2018-11-11T01:05:31.481Z,20.03
2018-11-11T01:08:00.152Z,20.57
2018-11-11T01:10:29.528Z,19.33
2018-11-11T01:12:58.188Z,21.20
2018-11-11T01:15:27.127Z,23.20
2018-11-11T01:17:55.778Z,22.30
2018-11-11T01:20:25.102Z,25.07
2018-11-11T01:22:53.803Z,21.70
2018-11-11T01:25:22.349Z,22.80
2018-11-11T01:27:51.788Z,21.67
2018-11-11T01:30:20.316Z,20.80
2018-11-11T01:32:49.072Z,24.13
2018-11-11T01:35:17.989Z,23.30
2018-11-11T01:37:46.846Z,19.63
2018-11-11T01:40:16.113Z,21.83
2018-11-11T01:42:44.961Z,22.20
2018-11-11T01:45:19.137Z,21.43
2018-11-11T01:47:48.677Z,22.90
2018-11-11T01:50:18.492Z,20.90
2018-11-11T01:52:49.040Z,20.27
2018-11-11T01:55:20.374Z,18.97
2018-11-11T01:57:49.160Z,22.53
2018-11-11T02:00:18.810Z,20.50
2018-11-11T02:02:48.390Z,21.27
2018-11-11T02:05:17.172Z,22.10
2018-11-11T02:07:46.626Z,21.73
2018-11-11T02:10:15.510Z,20.73
2018-11-11T02:12:45.163Z,19.03
2018-11-11T02:15:15.386Z,20.23
2018-11-11T02:17:44.077Z,22.37
2018-11-11T02:20:15.044Z,20.57
2018-11-11T02:22:45.272Z,19.87
2018-11-11T02:25:14.175Z,23.67
2018-11-11T02:27:42.766Z,23.13
2018-11-11T02:30:13.936Z,20.97
2018-11-11T02:32:43.014Z,20.43
2018-11-11T02:35:12.620Z,21.33
2018-11-11T02:37:42.168Z,21.53
2018-11-11T02:40:12.611Z,19.23
2018-11-11T02:42:41.391Z,21.90
2018-11-11T02:45:17.905Z,18.00
2018-11-11T02:47:46.646Z,21.20
2018-11-11T02:50:16.475Z,23.37
2018-11-11T02:52:46.796Z,21.83
2018-11-11T02:55:15.805Z,21.20
2018-11-11T02:57:45.314Z,18.87
2018-11-11T03:00:16.017Z,20.13
2018-11-11T03:02:46.438Z,20.83
2018-11-11T03:05:16.013Z,21.53
2018-11-11T03:07:44.653Z,22.90
2018-11-11T03:10:14.600Z,20.77
2018-11-11T03:12:43.764Z,21.57
2018-11-11T03:15:14.149Z,20.33
2018-11-11T03:17:43.318Z,19.70
2018-11-11T03:20:12.950Z,21.03
2018-11-11T03:22:41.538Z,23.60
2018-11-11T03:25:11.901Z,22.93
2018-11-11T03:27:40.891Z,17.50
2018-11-11T03:30:11.211Z,17.90
2018-11-11T03:32:40.246Z,20.67
2018-11-11T03:35:10.614Z,16.00
2018-11-11T03:37:39.314Z,15.73
2018-11-11T03:40:14.040Z,16.87
2018-11-11T03:42:43.410Z,17.03
2018-11-11T03:45:15.152Z,17.23
2018-11-11T03:47:44.809Z,15.80
2018-11-11T03:50:13.551Z,14.43
2018-11-11T03:52:43.394Z,15.77
2018-11-11T03:55:12.427Z,13.77
2018-11-11T03:57:41.298Z,13.17
2018-11-11T04:00:13.636Z,13.77
2018-11-11T04:02:43.192Z,13.97
2018-11-11T04:05:13.667Z,15.30
2018-11-11T04:07:42.433Z,15.60
2018-11-11T04:10:14.526Z,14.87
2018-11-11T04:12:43.208Z,15.33
2018-11-11T04:15:13.950Z,13.70
2018-11-11T04:17:42.627Z,13.87
2018-11-11T04:20:13.420Z,12.73
2018-11-11T04:22:42.123Z,13.67
2018-11-11T04:25:11.569Z,14.27
2018-11-11T04:27:41.272Z,13.70
2018-11-11T04:30:10.961Z,13.07
2018-11-11T04:32:39.667Z,15.13
2018-11-11T04:35:08.327Z,14.37
2018-11-11T04:37:37.706Z,12.83
2018-11-11T04:40:08.322Z,15.30
2018-11-11T04:42:36.976Z,14.27
2018-11-11T04:45:06.903Z,13.73
2018-11-11T04:47:36.090Z,14.50
2018-11-11T04:50:05.852Z,13.80
2018-11-11T04:52:34.979Z,14.57
2018-11-11T04:55:03.661Z,14.53
2018-11-11T04:57:32.227Z,17.93
2018-11-11T05:00:01.175Z,14.53
2018-11-11T05:02:29.670Z,15.70
2018-11-11T05:04:58.242Z,14.80
2018-11-11T05:07:26.723Z,14.07
2018-11-11T05:09:55.279Z,16.63
2018-11-11T05:12:23.757Z,15.40
2018-11-11T05:14:52.762Z,14.67
2018-11-11T05:17:21.707Z,15.90
2018-11-11T05:19:50.969Z,18.47
2018-11-11T05:22:19.649Z,16.27
2018-11-11T05:24:48.137Z,15.77
2018-11-11T05:27:17.698Z,15.53
2018-11-11T05:29:46.259Z,14.40
2018-11-11T05:32:14.869Z,12.53
2018-11-11T05:34:43.593Z,14.73
2018-11-11T05:37:12.999Z,13.63
2018-11-11T05:39:42.307Z,12.40
2018-11-11T05:42:11.820Z,14.10
2018-11-11T05:44:40.492Z,14.67
2018-11-11T05:47:09.140Z,12.97
2018-11-11T05:49:37.616Z,11.97
2018-11-11T05:52:06.290Z,15.97
2018-11-11T05:54:34.870Z,12.57
2018-11-11T05:57:04.071Z,13.30
2018-11-11T05:59:32.756Z,15.53
2018-11-11T06:02:01.307Z,15.63
2018-11-11T06:04:30.115Z,13.77
2018-11-11T06:06:58.697Z,16.17
2018-11-11T06:09:27.272Z,17.57
2018-11-11T06:11:56.532Z,18.47
2018-11-11T06:14:25.301Z,15.60
2018-11-11T06:16:53.850Z,15.13
2018-11-11T06:19:22.454Z,13.67
2018-11-11T06:21:51.134Z,14.53
2018-11-11T06:24:19.669Z,15.07
2018-11-11T06:26:48.496Z,13.20
2018-11-11T06:29:17.608Z,14.10
2018-11-11T06:31:46.138Z,15.53
2018-11-11T06:34:14.921Z,16.87
2018-11-11T06:36:43.384Z,15.73
2018-11-11T06:39:13.230Z,16.43
2018-11-11T06:41:42.103Z,16.33
2018-11-11T06:44:10.724Z,16.40
2018-11-11T06:46:39.287Z,17.30
2018-11-11T06:49:07.995Z,16.63
2018-11-11T06:51:36.804Z,16.27
2018-11-11T06:54:06.004Z,17.13
2018-11-11T06:56:35.144Z,17.63
2018-11-11T06:59:03.714Z,15.07
2018-11-11T07:01:33.267Z,17.57
2018-11-11T07:04:03.064Z,20.47
2018-11-11T07:06:33.122Z,16.77
2018-11-11T07:09:01.580Z,19.00
2018-11-11T07:11:30.066Z,14.27
2018-11-11T07:13:58.679Z,14.47
2018-11-11T07:16:27.352Z,16.50
2018-11-11T07:18:55.994Z,14.70
2018-11-11T07:21:24.703Z,17.50
2018-11-11T07:23:53.324Z,19.37
2018-11-11T07:26:21.956Z,17.27
2018-11-11T07:28:50.775Z,15.90
2018-11-11T07:31:19.453Z,20.07
2018-11-11T07:33:48.054Z,17.17
2018-11-11T07:36:17.023Z,19.30
2018-11-11T07:38:46.263Z,22.03
2018-11-11T07:41:16.134Z,17.00
2018-11-11T07:43:45.569Z,15.13
2018-11-11T07:46:14.466Z,15.53
2018-11-11T07:48:44.797Z,13.27
2018-11-11T07:51:14.806Z,13.73
2018-11-11T07:53:44.899Z,16.50
2018-11-11T07:56:18.703Z,15.13
2018-11-11T07:58:48.639Z,12.90
2018-11-11T08:01:19.646Z,14.13
2018-11-11T08:03:48.972Z,13.93
2018-11-11T08:06:18.519Z,16.50
2018-11-11T08:08:47.245Z,12.93
2018-11-11T08:11:27.203Z,15.00
2018-11-11T08:13:56.962Z,14.60
2018-11-11T08:16:26.255Z,15.20
2018-11-11T08:18:55.123Z,17.70
2018-11-11T08:21:24.049Z,14.20
2018-11-11T08:23:53.968Z,16.33
2018-11-11T08:26:23.223Z,15.60
2018-11-11T08:28:57.072Z,17.43
2018-11-11T08:31:29.337Z,15.13
2018-11-11T08:36:08.281Z,16.77
2018-11-11T08:38:36.875Z,17.53
2018-11-11T08:41:06.054Z,14.03
2018-11-11T08:43:35.014Z,18.90
2018-11-11T08:46:04.950Z,17.57
2018-11-11T08:48:33.669Z,21.07
2018-11-11T08:51:03.224Z,29.83
2018-11-11T08:53:33.319Z,33.93
2018-11-11T08:56:01.911Z,27.30
2018-11-11T08:58:31.712Z,20.90
2018-11-11T09:01:00.266Z,20.07
2018-11-11T09:03:30.020Z,29.13
2018-11-11T09:05:59.451Z,17.80
2018-11-11T09:08:30.084Z,18.97
2018-11-11T09:11:01.162Z,17.73
2018-11-11T09:13:30.352Z,17.17
2018-11-11T09:15:58.870Z,15.77
2018-11-11T09:18:27.966Z,17.63
2018-11-11T09:20:56.603Z,16.13
2018-11-11T09:23:25.311Z,14.40
2018-11-11T09:25:54.902Z,13.37
2018-11-11T09:28:23.558Z,13.80
2018-11-11T09:30:52.246Z,15.40
2018-11-11T09:33:20.789Z,15.53
2018-11-11T09:35:51.109Z,14.83
2018-11-11T09:38:19.784Z,14.80
2018-11-11T09:40:49.842Z,12.80
2018-11-11T09:43:18.571Z,15.17
2018-11-11T09:45:47.918Z,14.17
2018-11-11T09:48:18.041Z,14.97
2018-11-11T09:50:46.767Z,14.03
2018-11-11T09:53:16.094Z,11.13
2018-11-11T09:55:45.263Z,13.30
2018-11-11T09:58:17.104Z,11.87
2018-11-11T10:00:49.821Z,12.73
2018-11-11T10:03:29.238Z,10.57
2018-11-11T10:06:05.865Z,10.13
2018-11-11T10:08:46.415Z,8.87
2018-11-11T10:11:29.064Z,7.73
2018-11-11T10:15:04.285Z,10.23
2018-11-11T10:17:43.695Z,8.93
2018-11-11T10:20:22.404Z,8.50
2018-11-11T10:22:56.529Z,8.60
2018-11-11T10:26:30.155Z,8.57
2018-11-11T10:29:04.023Z,11.77
2018-11-11T10:31:39.334Z,9.17
2018-11-11T10:34:13.030Z,9.13
2018-11-11T10:37:44.878Z,8.03
2018-11-11T10:40:33.451Z,10.80
2018-11-11T10:43:11.262Z,14.43
2018-11-11T10:45:51.725Z,16.13
2018-11-11T10:48:24.610Z,5.23
2018-11-11T10:50:56.573Z,3.40
2018-11-11T10:53:25.386Z,7.33
2018-11-11T10:55:55.218Z,4.43
2018-11-11T10:58:24.417Z,4.00
2018-11-11T11:00:58.272Z,2.47
2018-11-11T11:03:32.053Z,3.33
2018-11-11T11:06:01.988Z,3.40
2018-11-11T11:08:31.118Z,5.53
2018-11-11T11:10:59.880Z,5.03
2018-11-11T11:13:29.739Z,10.43
2018-11-11T11:15:59.135Z,5.17
2018-11-11T11:18:27.642Z,6.97
2018-11-11T11:20:56.368Z,12.23
2018-11-11T11:23:25.066Z,3.57
2018-11-11T11:25:53.640Z,4.37
2018-11-11T11:28:22.113Z,7.27
2018-11-11T11:30:50.607Z,3.23
2018-11-11T11:33:19.164Z,4.63
2018-11-11T11:35:47.682Z,2.00
2018-11-11T11:38:16.585Z,2.00
2018-11-11T11:40:45.487Z,2.20
2018-11-11T11:43:14.204Z,3.57
2018-11-11T11:45:43.640Z,9.83
2018-11-11T11:48:12.109Z,1.37
2018-11-11T11:50:41.363Z,1.90
2018-11-11T11:53:09.924Z,1.87
2018-11-11T11:55:38.475Z,2.23
2018-11-11T11:58:23.826Z,3.07
2018-11-11T12:00:53.126Z,6.03
2018-11-11T12:03:21.783Z,5.10
2018-11-11T12:05:50.453Z,4.53
2018-11-11T12:08:19.196Z,2.40
2018-11-11T12:10:47.820Z,1.50
2018-11-11T12:13:20.981Z,7.47
2018-11-11T12:15:49.749Z,10.73
2018-11-11T12:18:18.484Z,5.43
2018-11-11T12:20:47.615Z,2.07
2018-11-11T12:23:17.039Z,1.50
2018-11-11T12:25:45.627Z,1.87
2018-11-11T12:28:14.230Z,3.13
2018-11-11T12:30:42.951Z,3.50
2018-11-11T12:33:12.262Z,1.43
2018-11-11T12:35:40.971Z,1.10
2018-11-11T12:38:11.221Z,1.30
2018-11-11T12:40:40.628Z,1.03
2018-11-11T12:43:10.133Z,2.57
2018-11-11T12:45:39.312Z,1.33
2018-11-11T12:48:08.252Z,2.60
2018-11-11T12:50:36.855Z,2.77
2018-11-11T12:53:05.790Z,1.67
2018-11-11T12:55:34.584Z,2.90
2018-11-11T12:58:03.063Z,1.03
2018-11-11T13:00:31.796Z,2.03
2018-11-11T13:03:00.538Z,0.70
2018-11-11T13:05:31.322Z,2.63
2018-11-11T13:08:00.190Z,1.33
2018-11-11T13:10:28.868Z,1.00
2018-11-11T13:12:57.359Z,2.47
2018-11-11T13:15:27.069Z,3.97
2018-11-11T13:17:56.667Z,2.17
2018-11-11T13:20:26.743Z,2.73
2018-11-11T13:22:56.604Z,1.17
2018-11-11T13:25:25.307Z,1.60
2018-11-11T13:27:55.218Z,1.10
2018-11-11T13:30:23.972Z,2.97
2018-11-11T13:32:52.574Z,1.70
2018-11-11T13:35:21.368Z,1.83
2018-11-11T13:37:50.565Z,1.33
2018-11-11T13:40:20.517Z,1.10
2018-11-11T13:42:49.247Z,2.70
2018-11-11T13:45:21.262Z,1.53
2018-11-11T13:47:50.992Z,3.00
2018-11-11T13:50:23.056Z,1.67
2018-11-11T13:52:52.102Z,2.13
2018-11-11T13:55:22.594Z,3.83
2018-11-11T13:57:51.652Z,18.03
2018-11-11T14:00:22.730Z,10.87
2018-11-11T14:02:52.535Z,3.47
2018-11-11T14:05:22.248Z,3.57
2018-11-11T14:07:51.900Z,1.63
2018-11-11T14:10:20.583Z,1.13
2018-11-11T14:12:49.193Z,0.90
2018-11-11T14:15:20.629Z,1.37
2018-11-11T14:17:49.470Z,4.37
2018-11-11T14:20:19.400Z,5.87
2018-11-11T14:22:48.958Z,2.73
2018-11-11T14:25:21.382Z,5.93
2018-11-11T14:27:49.952Z,7.10
2018-11-11T14:30:19.928Z,3.63
2018-11-11T14:32:49.475Z,2.40
2018-11-11T14:35:17.993Z,3.13
2018-11-11T14:37:46.958Z,1.40
2018-11-11T14:40:17.838Z,2.63
2018-11-11T14:42:47.793Z,1.50
2018-11-11T14:45:17.342Z,3.97
2018-11-11T14:47:47.136Z,4.30
2018-11-11T14:50:17.042Z,1.23
2018-11-11T14:52:46.114Z,2.33
2018-11-11T14:55:18.199Z,2.40
2018-11-11T14:57:46.800Z,1.70
2018-11-11T15:00:18.158Z,1.77
2018-11-11T15:02:49.981Z,2.93
2018-11-11T15:05:19.050Z,2.33
2018-11-11T15:07:47.592Z,2.33
2018-11-11T15:10:16.319Z,3.17
2018-11-11T15:12:45.242Z,2.37
2018-11-11T15:15:17.117Z,3.13
2018-11-11T15:17:46.393Z,2.67
2018-11-11T15:20:15.981Z,3.03
2018-11-11T15:22:44.952Z,2.90
2018-11-11T15:25:15.778Z,3.30
2018-11-11T15:27:45.531Z,1.73
2018-11-11T15:30:18.997Z,1.87
2018-11-11T15:32:47.753Z,2.77
2018-11-11T15:35:17.093Z,1.20
2018-11-11T15:37:45.677Z,2.87
2018-11-11T15:40:15.902Z,3.20
2018-11-11T15:42:44.621Z,2.93
2018-11-11T15:45:15.758Z,1.73
2018-11-11T15:47:44.599Z,1.63
2018-11-11T15:50:15.607Z,2.23
2018-11-11T15:52:47.049Z,3.23
2018-11-11T15:55:16.911Z,1.70
2018-11-11T15:57:45.628Z,3.53
2018-11-11T16:00:16.548Z,3.67
2018-11-11T16:02:45.657Z,4.17
2018-11-11T16:05:15.257Z,3.67
2018-11-11T16:07:44.572Z,3.60
2018-11-11T16:10:14.815Z,2.83
2018-11-11T16:12:43.822Z,5.23
2018-11-11T16:15:15.668Z,3.77
2018-11-11T16:17:45.126Z,2.37
2018-11-11T16:20:15.399Z,2.07
2018-11-11T16:22:45.477Z,3.10
2018-11-11T16:25:14.128Z,3.80
2018-11-11T16:27:43.783Z,5.90
2018-11-11T16:30:18.787Z,5.37
2018-11-11T16:32:48.822Z,4.43
2018-11-11T16:35:18.459Z,5.80
2018-11-11T16:37:46.993Z,4.73
2018-11-11T16:40:17.566Z,4.80
2018-11-11T16:42:46.592Z,6.23
2018-11-11T16:45:16.814Z,4.47
2018-11-11T16:47:45.563Z,6.63
2018-11-11T16:50:16.018Z,5.17
2018-11-11T16:52:45.282Z,3.57
2018-11-11T16:55:15.015Z,5.43
2018-11-11T16:57:44.116Z,3.90
2018-11-11T17:00:18.396Z,4.87
2018-11-11T17:02:47.506Z,6.33
2018-11-11T17:05:26.810Z,4.97
2018-11-11T17:07:55.681Z,6.23
2018-11-11T17:10:27.996Z,8.17
2018-11-11T17:12:58.697Z,6.47
2018-11-11T17:15:28.433Z,7.43
2018-11-11T17:17:57.793Z,7.87
2018-11-11T17:20:29.173Z,8.00
2018-11-11T17:23:00.554Z,7.83
2018-11-11T17:25:30.213Z,8.33
2018-11-11T17:28:00.344Z,9.30
2018-11-11T17:30:30.489Z,8.80
2018-11-11T17:32:59.960Z,9.57
2018-11-11T17:35:29.140Z,8.77
2018-11-11T17:37:58.138Z,11.20
2018-11-11T17:40:28.865Z,7.87
2018-11-11T17:42:59.791Z,8.47
2018-11-11T17:45:28.829Z,8.90
2018-11-11T17:47:59.002Z,9.70
2018-11-11T17:50:29.739Z,11.27
2018-11-11T17:52:59.011Z,13.30
2018-11-11T17:55:28.767Z,9.13
2018-11-11T17:57:57.516Z,7.33
2018-11-11T18:00:27.377Z,8.37
2018-11-11T18:02:56.828Z,10.83
2018-11-11T18:05:27.622Z,10.27
2018-11-11T18:07:56.406Z,11.20
2018-11-11T18:10:25.675Z,8.97
2018-11-11T18:12:54.508Z,9.73
2018-11-11T18:15:26.390Z,9.97
2018-11-11T18:17:59.524Z,11.53
2018-11-11T18:20:30.153Z,12.80
2018-11-11T18:22:59.887Z,11.33
2018-11-11T18:25:28.762Z,8.03
2018-11-11T18:27:57.424Z,10.50
2018-11-11T18:30:29.695Z,10.30
2018-11-11T18:33:00.789Z,8.30
2018-11-11T18:35:29.802Z,10.60
2018-11-11T18:37:58.750Z,8.70
2018-11-11T18:40:28.524Z,9.73
2018-11-11T18:42:57.186Z,7.73
2018-11-11T18:45:26.908Z,8.60
2018-11-11T18:47:59.262Z,10.13
2018-11-11T18:50:30.412Z,8.87
2018-11-11T18:52:59.799Z,11.23
2018-11-11T18:55:28.552Z,7.73
2018-11-11T18:57:57.516Z,8.83
2018-11-11T19:00:27.980Z,7.97
2018-11-11T19:02:57.401Z,9.80
2018-11-11T19:05:27.033Z,8.43
2018-11-11T19:07:56.791Z,7.97
2018-11-11T19:10:27.426Z,7.33
2018-11-11T19:12:58.056Z,8.80
2018-11-11T19:15:27.131Z,8.70
2018-11-11T19:17:56.202Z,6.87
2018-11-11T19:20:25.904Z,8.13
2018-11-11T19:22:54.716Z,7.67
2018-11-11T19:25:25.568Z,7.27
2018-11-11T19:27:54.876Z,5.87
2018-11-11T19:30:24.877Z,8.17
2018-11-11T19:32:54.470Z,6.67
2018-11-11T19:35:23.715Z,7.00
2018-11-11T19:37:53.713Z,6.90
2018-11-11T19:40:23.906Z,6.20
2018-11-11T19:42:53.434Z,6.63
2018-11-11T19:45:24.043Z,8.70
2018-11-11T19:47:52.800Z,7.10
2018-11-11T19:50:22.966Z,5.60
2018-11-11T19:52:53.304Z,7.57
2018-11-11T19:55:22.759Z,7.07
2018-11-11T19:57:51.771Z,6.30
2018-11-11T20:00:22.954Z,6.33
2018-11-11T20:02:53.881Z,6.20
2018-11-11T20:05:22.842Z,7.20
2018-11-11T20:07:52.812Z,6.60
2018-11-11T20:10:22.463Z,6.80
2018-11-11T20:12:51.933Z,6.17
2018-11-11T20:15:29.003Z,6.40
2018-11-11T20:17:59.779Z,6.47
2018-11-11T20:20:33.445Z,7.30
2018-11-11T20:23:02.978Z,5.93
2018-11-11T20:25:31.742Z,5.37
2018-11-11T20:28:01.281Z,7.03
2018-11-11T20:30:31.961Z,4.90
2018-11-11T20:33:01.394Z,4.73
2018-11-11T20:35:31.911Z,6.00
2018-11-11T20:38:00.703Z,5.03
2018-11-11T20:40:30.901Z,5.50
2018-11-11T20:43:00.466Z,6.07
2018-11-11T20:45:32.278Z,4.10
2018-11-11T20:48:01.601Z,4.87
2018-11-11T20:50:31.930Z,4.60
2018-11-11T20:53:02.706Z,5.33
2018-11-11T20:55:32.153Z,4.43
2018-11-11T20:58:01.760Z,4.83
2018-11-11T21:00:32.886Z,3.90
2018-11-11T21:03:02.340Z,5.07
2018-11-11T21:05:35.163Z,9.37
2018-11-11T21:08:08.470Z,4.07
2018-11-11T21:10:40.185Z,4.17
2018-11-11T21:13:09.829Z,3.43
2018-11-11T21:15:40.274Z,4.47
2018-11-11T21:18:13.279Z,4.77
2018-11-11T21:20:43.900Z,4.53
2018-11-11T21:23:12.469Z,4.07
2018-11-11T21:25:41.392Z,3.47
2018-11-11T21:28:10.369Z,3.90
2018-11-11T21:30:42.393Z,4.00
2018-11-11T21:33:17.745Z,3.57
2018-11-11T21:35:50.201Z,3.77
2018-11-11T21:38:19.241Z,4.40
2018-11-11T21:40:47.747Z,4.13
2018-11-11T21:43:17.128Z,3.27
2018-11-11T21:45:45.830Z,4.67
2018-11-11T21:48:14.897Z,3.43
2018-11-11T21:50:48.002Z,3.23
2018-11-11T21:53:39.202Z,3.87
2018-11-11T21:56:08.896Z,3.30
2018-11-11T21:58:37.722Z,3.80
2018-11-11T22:01:07.274Z,2.40
2018-11-11T22:03:35.889Z,2.47
2018-11-11T22:06:07.765Z,3.50
2018-11-11T22:08:37.773Z,3.53
2018-11-11T22:11:08.972Z,2.80
2018-11-11T22:13:37.916Z,4.80
2018-11-11T22:16:09.794Z,3.00
2018-11-11T22:18:38.518Z,2.47
2018-11-11T22:21:08.364Z,2.43
2018-11-11T22:23:36.927Z,4.20
2018-11-11T22:26:05.646Z,2.67
2018-11-11T22:28:34.273Z,2.80
2018-11-11T22:31:03.209Z,3.40
2018-11-11T22:33:32.367Z,3.17
2018-11-11T22:36:01.107Z,4.90
2018-11-11T22:38:29.613Z,3.43
2018-11-11T22:40:58.469Z,2.93
2018-11-11T22:43:27.064Z,2.90
2018-11-11T22:45:55.567Z,2.87
2018-11-11T22:48:24.059Z,2.83
2018-11-11T22:50:52.598Z,2.90
2018-11-11T22:53:21.128Z,3.23
2018-11-11T22:55:49.651Z,2.67
2018-11-11T22:58:21.876Z,3.43
2018-11-11T23:00:56.883Z,3.07
2018-11-11T23:03:25.507Z,2.67
2018-11-11T23:05:56.485Z,2.73
2018-11-11T23:08:25.127Z,3.33
2018-11-11T23:10:59.184Z,3.23
2018-11-11T23:13:27.911Z,2.90
2018-11-11T23:15:57.089Z,2.57
2018-11-11T23:18:28.599Z,2.00
2018-11-11T23:20:57.252Z,2.40
2018-11-11T23:23:29.659Z,3.20
2018-11-11T23:26:00.600Z,3.00
2018-11-11T23:28:29.303Z,2.67
2018-11-11T23:30:58.360Z,3.60
2018-11-11T23:33:30.913Z,2.57
2018-11-11T23:36:04.847Z,2.67
2018-11-11T23:38:37.882Z,2.67
2018-11-11T23:41:07.529Z,3.50
2018-11-11T23:43:36.081Z,3.00
2018-11-11T23:46:04.771Z,3.10
2018-11-11T23:48:33.418Z,3.20
2018-11-11T23:51:02.061Z,3.33
2018-11-11T23:53:30.828Z,5.13
2018-11-11T23:56:00.157Z,4.17
2018-11-11T23:58:29.213Z,3.23
